sensor_id;sensor_type;location;lat;lon;timestamp;P1;durP1;ratioP1;P2;durP2;ratioP2
21814;SDS011;11069;48.988;8.450;2023-08-17T00:01:40;7.38;;;6.32;;
21814;SDS011;11069;48.988;8.450;2023-08-17T00:04:06;8.00;;;6.60;;
21814;SDS011;11069;48.988;8.450;2023-08-17T00:06:32;6.88;;;6.18;;
21814;SDS011;11069;48.988;8.450;2023-08-17T00:08:57;9.50;;;6.13;;
21814;SDS011;11069;48.988;8.450;2023-08-17T00:11:23;6.65;;;5.95;;
21814;SDS011;11069;48.988;8.450;2023-08-17T00:13:48;7.00;;;6.30;;
21814;SDS011;11069;48.988;8.450;2023-08-17T00:16:14;6.15;;;5.55;;
21814;SDS011;11069;48.988;8.450;2023-08-17T00:18:40;7.32;;;5.78;;
21814;SDS011;11069;48.988;8.450;2023-08-17T00:21:05;6.45;;;5.85;;
21814;SDS011;11069;48.988;8.450;2023-08-17T00:23:31;8.25;;;6.30;;
21814;SDS011;11069;48.988;8.450;2023-08-17T00:25:56;7.53;;;6.15;;
21814;SDS011;11069;48.988;8.450;2023-08-17T00:28:22;6.85;;;5.65;;
21814;SDS011;11069;48.988;8.450;2023-08-17T00:30:48;6.22;;;5.70;;
21814;SDS011;11069;48.988;8.450;2023-08-17T00:33:13;7.40;;;5.43;;
21814;SDS011;11069;48.988;8.450;2023-08-17T00:35:39;9.38;;;5.80;;
21814;SDS011;11069;48.988;8.450;2023-08-17T00:38:04;7.82;;;5.97;;
21814;SDS011;11069;48.988;8.450;2023-08-17T00:40:30;8.15;;;5.80;;
21814;SDS011;11069;48.988;8.450;2023-08-17T00:42:55;7.25;;;5.10;;
21814;SDS011;11069;48.988;8.450;2023-08-17T00:45:22;6.03;;;5.43;;
21814;SDS011;11069;48.988;8.450;2023-08-17T00:47:48;6.35;;;5.50;;
21814;SDS011;11069;48.988;8.450;2023-08-17T00:50:14;8.80;;;5.53;;
21814;SDS011;11069;48.988;8.450;2023-08-17T00:52:40;5.97;;;5.45;;
21814;SDS011;11069;48.988;8.450;2023-08-17T00:55:07;6.68;;;5.65;;
21814;SDS011;11069;48.988;8.450;2023-08-17T00:57:34;6.13;;;5.32;;
21814;SDS011;11069;48.988;8.450;2023-08-17T01:00:00;7.15;;;4.88;;
21814;SDS011;11069;48.988;8.450;2023-08-17T01:02:27;4.88;;;4.45;;
21814;SDS011;11069;48.988;8.450;2023-08-17T01:04:53;5.97;;;4.90;;
21814;SDS011;11069;48.988;8.450;2023-08-17T01:07:18;7.80;;;4.68;;
21814;SDS011;11069;48.988;8.450;2023-08-17T01:09:44;6.93;;;4.07;;
21814;SDS011;11069;48.988;8.450;2023-08-17T01:12:14;6.43;;;4.22;;
21814;SDS011;11069;48.988;8.450;2023-08-17T01:17:22;6.85;;;4.53;;
21814;SDS011;11069;48.988;8.450;2023-08-17T01:19:52;5.53;;;4.60;;
21814;SDS011;11069;48.988;8.450;2023-08-17T01:22:20;4.70;;;4.20;;
21814;SDS011;11069;48.988;8.450;2023-08-17T01:24:47;6.03;;;4.15;;
21814;SDS011;11069;48.988;8.450;2023-08-17T01:27:13;5.70;;;4.10;;
21814;SDS011;11069;48.988;8.450;2023-08-17T01:29:38;4.35;;;3.60;;
21814;SDS011;11069;48.988;8.450;2023-08-17T01:37:50;4.05;;;3.65;;
21814;SDS011;11069;48.988;8.450;2023-08-17T01:40:20;5.20;;;3.67;;
21814;SDS011;11069;48.988;8.450;2023-08-17T01:42:47;4.38;;;3.97;;
21814;SDS011;11069;48.988;8.450;2023-08-17T01:45:15;4.30;;;3.90;;
21814;SDS011;11069;48.988;8.450;2023-08-17T01:47:41;4.90;;;4.22;;
21814;SDS011;11069;48.988;8.450;2023-08-17T01:50:06;5.90;;;4.18;;
21814;SDS011;11069;48.988;8.450;2023-08-17T01:52:32;4.90;;;4.25;;
21814;SDS011;11069;48.988;8.450;2023-08-17T01:54:58;5.90;;;3.92;;
21814;SDS011;11069;48.988;8.450;2023-08-17T01:57:23;5.18;;;4.50;;
21814;SDS011;11069;48.988;8.450;2023-08-17T01:59:49;5.38;;;3.60;;
21814;SDS011;11069;48.988;8.450;2023-08-17T02:02:14;4.97;;;4.22;;
21814;SDS011;11069;48.988;8.450;2023-08-17T02:04:40;3.83;;;3.38;;
21814;SDS011;11069;48.988;8.450;2023-08-17T02:07:06;4.80;;;4.10;;
21814;SDS011;11069;48.988;8.450;2023-08-17T02:09:31;4.78;;;4.25;;
21814;SDS011;11069;48.988;8.450;2023-08-17T02:11:57;6.30;;;4.13;;
21814;SDS011;11069;48.988;8.450;2023-08-17T02:14:22;4.63;;;4.15;;
21814;SDS011;11069;48.988;8.450;2023-08-17T02:16:48;4.35;;;3.95;;
21814;SDS011;11069;48.988;8.450;2023-08-17T02:19:13;4.97;;;4.50;;
21814;SDS011;11069;48.988;8.450;2023-08-17T02:21:39;5.63;;;4.20;;
21814;SDS011;11069;48.988;8.450;2023-08-17T02:24:05;4.80;;;3.65;;
21814;SDS011;11069;48.988;8.450;2023-08-17T02:26:31;6.00;;;4.03;;
21814;SDS011;11069;48.988;8.450;2023-08-17T02:28:56;5.28;;;4.00;;
21814;SDS011;11069;48.988;8.450;2023-08-17T02:31:22;4.60;;;4.13;;
21814;SDS011;11069;48.988;8.450;2023-08-17T02:33:47;5.18;;;3.72;;
21814;SDS011;11069;48.988;8.450;2023-08-17T02:36:13;6.13;;;4.60;;
21814;SDS011;11069;48.988;8.450;2023-08-17T02:38:39;5.07;;;4.10;;
21814;SDS011;11069;48.988;8.450;2023-08-17T02:41:04;5.07;;;4.35;;
21814;SDS011;11069;48.988;8.450;2023-08-17T02:43:30;4.88;;;4.13;;
21814;SDS011;11069;48.988;8.450;2023-08-17T02:45:55;6.10;;;4.18;;
21814;SDS011;11069;48.988;8.450;2023-08-17T02:48:21;6.32;;;4.35;;
21814;SDS011;11069;48.988;8.450;2023-08-17T02:50:47;5.18;;;4.20;;
21814;SDS011;11069;48.988;8.450;2023-08-17T02:53:12;5.60;;;4.18;;
21814;SDS011;11069;48.988;8.450;2023-08-17T02:55:38;6.03;;;4.30;;
21814;SDS011;11069;48.988;8.450;2023-08-17T02:58:03;6.85;;;4.70;;
21814;SDS011;11069;48.988;8.450;2023-08-17T03:00:29;4.57;;;4.18;;
21814;SDS011;11069;48.988;8.450;2023-08-17T03:02:55;5.28;;;4.03;;
21814;SDS011;11069;48.988;8.450;2023-08-17T03:05:20;11.15;;;5.18;;
21814;SDS011;11069;48.988;8.450;2023-08-17T03:07:46;5.68;;;4.35;;
21814;SDS011;11069;48.988;8.450;2023-08-17T03:10:11;6.18;;;4.80;;
21814;SDS011;11069;48.988;8.450;2023-08-17T03:12:37;7.20;;;4.60;;
21814;SDS011;11069;48.988;8.450;2023-08-17T03:15:04;4.75;;;4.35;;
21814;SDS011;11069;48.988;8.450;2023-08-17T03:17:31;9.32;;;5.00;;
21814;SDS011;11069;48.988;8.450;2023-08-17T03:19:56;4.75;;;4.35;;
21814;SDS011;11069;48.988;8.450;2023-08-17T03:22:25;6.05;;;4.35;;
21814;SDS011;11069;48.988;8.450;2023-08-17T03:24:50;4.65;;;4.25;;
21814;SDS011;11069;48.988;8.450;2023-08-17T03:27:16;7.25;;;4.63;;
21814;SDS011;11069;48.988;8.450;2023-08-17T03:29:42;6.35;;;5.05;;
21814;SDS011;11069;48.988;8.450;2023-08-17T03:32:07;6.78;;;5.57;;
21814;SDS011;11069;48.988;8.450;2023-08-17T03:34:33;6.80;;;5.63;;
21814;SDS011;11069;48.988;8.450;2023-08-17T03:36:58;7.07;;;5.75;;
21814;SDS011;11069;48.988;8.450;2023-08-17T03:39:24;6.25;;;5.65;;
21814;SDS011;11069;48.988;8.450;2023-08-17T03:41:49;9.85;;;6.13;;
21814;SDS011;11069;48.988;8.450;2023-08-17T03:44:15;9.35;;;5.90;;
21814;SDS011;11069;48.988;8.450;2023-08-17T03:46:41;6.35;;;5.60;;
21814;SDS011;11069;48.988;8.450;2023-08-17T03:49:06;6.35;;;5.75;;
21814;SDS011;11069;48.988;8.450;2023-08-17T03:51:32;8.30;;;6.47;;
21814;SDS011;11069;48.988;8.450;2023-08-17T03:53:57;7.28;;;6.07;;
21814;SDS011;11069;48.988;8.450;2023-08-17T03:56:23;7.88;;;5.90;;
21814;SDS011;11069;48.988;8.450;2023-08-17T03:58:49;9.80;;;6.25;;
21814;SDS011;11069;48.988;8.450;2023-08-17T04:01:15;7.60;;;5.93;;
21814;SDS011;11069;48.988;8.450;2023-08-17T04:03:40;9.18;;;5.85;;
21814;SDS011;11069;48.988;8.450;2023-08-17T04:06:06;9.18;;;6.10;;
21814;SDS011;11069;48.988;8.450;2023-08-17T04:08:35;8.60;;;6.50;;
21814;SDS011;11069;48.988;8.450;2023-08-17T04:11:01;6.47;;;5.88;;
21814;SDS011;11069;48.988;8.450;2023-08-17T04:13:26;6.57;;;5.93;;
21814;SDS011;11069;48.988;8.450;2023-08-17T04:15:52;6.50;;;5.90;;
21814;SDS011;11069;48.988;8.450;2023-08-17T04:18:18;7.70;;;6.90;;
21814;SDS011;11069;48.988;8.450;2023-08-17T04:20:43;8.48;;;7.25;;
21814;SDS011;11069;48.988;8.450;2023-08-17T04:23:09;8.50;;;7.43;;
21814;SDS011;11069;48.988;8.450;2023-08-17T04:25:34;8.70;;;7.88;;
21814;SDS011;11069;48.988;8.450;2023-08-17T04:28:00;8.35;;;7.30;;
21814;SDS011;11069;48.988;8.450;2023-08-17T04:30:26;9.15;;;8.25;;
21814;SDS011;11069;48.988;8.450;2023-08-17T04:32:52;9.98;;;7.95;;
21814;SDS011;11069;48.988;8.450;2023-08-17T04:35:18;9.02;;;8.15;;
21814;SDS011;11069;48.988;8.450;2023-08-17T04:37:44;9.60;;;8.55;;
21814;SDS011;11069;48.988;8.450;2023-08-17T04:40:09;9.18;;;8.27;;
21814;SDS011;11069;48.988;8.450;2023-08-17T04:42:35;10.20;;;8.90;;
21814;SDS011;11069;48.988;8.450;2023-08-17T04:45:01;10.85;;;9.15;;
21814;SDS011;11069;48.988;8.450;2023-08-17T04:47:28;10.57;;;9.38;;
21814;SDS011;11069;48.988;8.450;2023-08-17T04:49:53;10.65;;;9.43;;
21814;SDS011;11069;48.988;8.450;2023-08-17T04:52:19;10.77;;;9.60;;
21814;SDS011;11069;48.988;8.450;2023-08-17T04:54:44;10.60;;;9.48;;
21814;SDS011;11069;48.988;8.450;2023-08-17T04:57:10;11.80;;;9.13;;
21814;SDS011;11069;48.988;8.450;2023-08-17T04:59:36;10.45;;;8.98;;
21814;SDS011;11069;48.988;8.450;2023-08-17T05:02:01;9.85;;;8.73;;
21814;SDS011;11069;48.988;8.450;2023-08-17T05:04:29;9.68;;;8.07;;
21814;SDS011;11069;48.988;8.450;2023-08-17T05:06:55;8.65;;;7.75;;
21814;SDS011;11069;48.988;8.450;2023-08-17T05:09:20;9.35;;;8.43;;
21814;SDS011;11069;48.988;8.450;2023-08-17T05:11:46;8.82;;;7.93;;
21814;SDS011;11069;48.988;8.450;2023-08-17T05:14:12;8.70;;;7.80;;
21814;SDS011;11069;48.988;8.450;2023-08-17T05:16:37;8.52;;;7.35;;
21814;SDS011;11069;48.988;8.450;2023-08-17T05:19:03;9.25;;;6.85;;
21814;SDS011;11069;48.988;8.450;2023-08-17T05:21:29;9.52;;;7.47;;
21814;SDS011;11069;48.988;8.450;2023-08-17T05:23:54;8.73;;;6.97;;
21814;SDS011;11069;48.988;8.450;2023-08-17T05:26:20;7.95;;;6.68;;
21814;SDS011;11069;48.988;8.450;2023-08-17T05:28:46;8.43;;;7.50;;
21814;SDS011;11069;48.988;8.450;2023-08-17T05:31:12;10.02;;;7.45;;
21814;SDS011;11069;48.988;8.450;2023-08-17T05:33:37;8.70;;;7.80;;
21814;SDS011;11069;48.988;8.450;2023-08-17T05:36:05;8.38;;;7.47;;
21814;SDS011;11069;48.988;8.450;2023-08-17T05:38:31;8.80;;;7.50;;
21814;SDS011;11069;48.988;8.450;2023-08-17T05:40:57;9.73;;;7.35;;
21814;SDS011;11069;48.988;8.450;2023-08-17T05:43:24;10.30;;;7.30;;
21814;SDS011;11069;48.988;8.450;2023-08-17T05:45:54;8.73;;;7.20;;
21814;SDS011;11069;48.988;8.450;2023-08-17T05:48:22;9.10;;;8.05;;
21814;SDS011;11069;48.988;8.450;2023-08-17T05:50:48;11.20;;;7.78;;
21814;SDS011;11069;48.988;8.450;2023-08-17T05:53:14;9.48;;;7.30;;
21814;SDS011;11069;48.988;8.450;2023-08-17T05:55:39;10.20;;;7.88;;
21814;SDS011;11069;48.988;8.450;2023-08-17T05:58:05;10.18;;;7.85;;
21814;SDS011;11069;48.988;8.450;2023-08-17T06:00:30;12.20;;;8.23;;
21814;SDS011;11069;48.988;8.450;2023-08-17T06:02:56;11.38;;;7.65;;
21814;SDS011;11069;48.988;8.450;2023-08-17T06:05:26;10.00;;;7.50;;
21814;SDS011;11069;48.988;8.450;2023-08-17T06:07:53;10.13;;;7.88;;
21814;SDS011;11069;48.988;8.450;2023-08-17T06:10:23;11.63;;;8.38;;
21814;SDS011;11069;48.988;8.450;2023-08-17T06:12:51;12.65;;;8.63;;
21814;SDS011;11069;48.988;8.450;2023-08-17T06:15:17;12.50;;;8.05;;
21814;SDS011;11069;48.988;8.450;2023-08-17T06:17:44;11.20;;;8.15;;
21814;SDS011;11069;48.988;8.450;2023-08-17T06:20:10;10.20;;;7.47;;
21814;SDS011;11069;48.988;8.450;2023-08-17T06:22:37;10.18;;;7.63;;
21814;SDS011;11069;48.988;8.450;2023-08-17T06:25:02;8.85;;;7.65;;
21814;SDS011;11069;48.988;8.450;2023-08-17T06:27:30;12.25;;;8.68;;
21814;SDS011;11069;48.988;8.450;2023-08-17T06:29:55;11.85;;;8.25;;
21814;SDS011;11069;48.988;8.450;2023-08-17T06:32:21;13.20;;;9.15;;
21814;SDS011;11069;48.988;8.450;2023-08-17T06:34:47;13.15;;;9.10;;
21814;SDS011;11069;48.988;8.450;2023-08-17T06:37:12;15.60;;;10.40;;
21814;SDS011;11069;48.988;8.450;2023-08-17T06:39:38;14.98;;;10.00;;
21814;SDS011;11069;48.988;8.450;2023-08-17T06:42:04;12.38;;;9.68;;
21814;SDS011;11069;48.988;8.450;2023-08-17T06:44:30;12.20;;;9.57;;
21814;SDS011;11069;48.988;8.450;2023-08-17T06:46:56;10.77;;;9.38;;
21814;SDS011;11069;48.988;8.450;2023-08-17T06:49:22;13.57;;;10.25;;
21814;SDS011;11069;48.988;8.450;2023-08-17T06:51:47;16.10;;;11.48;;
21814;SDS011;11069;48.988;8.450;2023-08-17T06:54:13;14.98;;;11.90;;
21814;SDS011;11069;48.988;8.450;2023-08-17T06:56:38;14.40;;;11.63;;
21814;SDS011;11069;48.988;8.450;2023-08-17T06:59:04;17.55;;;12.40;;
21814;SDS011;11069;48.988;8.450;2023-08-17T07:01:30;15.23;;;12.80;;
21814;SDS011;11069;48.988;8.450;2023-08-17T07:03:55;19.23;;;13.65;;
21814;SDS011;11069;48.988;8.450;2023-08-17T07:06:22;18.27;;;13.25;;
21814;SDS011;11069;48.988;8.450;2023-08-17T07:08:48;17.42;;;13.52;;
21814;SDS011;11069;48.988;8.450;2023-08-17T07:11:13;14.40;;;11.57;;
21814;SDS011;11069;48.988;8.450;2023-08-17T07:13:39;15.07;;;11.63;;
21814;SDS011;11069;48.988;8.450;2023-08-17T07:16:04;15.98;;;11.10;;
21814;SDS011;11069;48.988;8.450;2023-08-17T07:18:30;15.23;;;10.80;;
21814;SDS011;11069;48.988;8.450;2023-08-17T07:20:55;12.90;;;10.75;;
21814;SDS011;11069;48.988;8.450;2023-08-17T07:23:21;13.95;;;10.77;;
21814;SDS011;11069;48.988;8.450;2023-08-17T07:25:47;11.20;;;9.88;;
21814;SDS011;11069;48.988;8.450;2023-08-17T07:28:13;15.07;;;10.43;;
21814;SDS011;11069;48.988;8.450;2023-08-17T07:30:40;12.93;;;10.27;;
21814;SDS011;11069;48.988;8.450;2023-08-17T07:33:06;13.40;;;9.10;;
21814;SDS011;11069;48.988;8.450;2023-08-17T07:35:32;15.60;;;9.95;;
21814;SDS011;11069;48.988;8.450;2023-08-17T07:37:57;17.25;;;9.85;;
21814;SDS011;11069;48.988;8.450;2023-08-17T07:40:23;15.00;;;10.13;;
21814;SDS011;11069;48.988;8.450;2023-08-17T07:42:48;14.30;;;11.48;;
21814;SDS011;11069;48.988;8.450;2023-08-17T07:45:14;16.95;;;12.25;;
21814;SDS011;11069;48.988;8.450;2023-08-17T07:47:40;12.77;;;10.80;;
21814;SDS011;11069;48.988;8.450;2023-08-17T07:50:06;14.40;;;10.18;;
21814;SDS011;11069;48.988;8.450;2023-08-17T07:52:32;13.48;;;10.32;;
21814;SDS011;11069;48.988;8.450;2023-08-17T07:54:57;14.30;;;10.95;;
21814;SDS011;11069;48.988;8.450;2023-08-17T07:57:23;16.60;;;12.13;;
21814;SDS011;11069;48.988;8.450;2023-08-17T07:59:49;15.68;;;11.13;;
21814;SDS011;11069;48.988;8.450;2023-08-17T08:02:16;12.50;;;10.98;;
21814;SDS011;11069;48.988;8.450;2023-08-17T08:04:42;15.05;;;11.70;;
21814;SDS011;11069;48.988;8.450;2023-08-17T08:07:08;13.55;;;11.35;;
21814;SDS011;11069;48.988;8.450;2023-08-17T08:09:34;18.10;;;10.43;;
21814;SDS011;11069;48.988;8.450;2023-08-17T08:12:00;14.05;;;10.43;;
21814;SDS011;11069;48.988;8.450;2023-08-17T08:14:25;13.30;;;8.77;;
21814;SDS011;11069;48.988;8.450;2023-08-17T08:16:51;11.93;;;9.43;;
21814;SDS011;11069;48.988;8.450;2023-08-17T08:19:17;10.73;;;8.18;;
21814;SDS011;11069;48.988;8.450;2023-08-17T08:21:42;12.80;;;8.85;;
21814;SDS011;11069;48.988;8.450;2023-08-17T08:24:08;12.00;;;9.77;;
21814;SDS011;11069;48.988;8.450;2023-08-17T08:26:34;12.63;;;8.45;;
21814;SDS011;11069;48.988;8.450;2023-08-17T08:29:00;10.65;;;8.45;;
21814;SDS011;11069;48.988;8.450;2023-08-17T08:31:25;12.15;;;8.43;;
21814;SDS011;11069;48.988;8.450;2023-08-17T08:33:51;13.30;;;8.18;;
21814;SDS011;11069;48.988;8.450;2023-08-17T08:36:17;13.23;;;9.88;;
21814;SDS011;11069;48.988;8.450;2023-08-17T08:38:43;14.02;;;9.07;;
21814;SDS011;11069;48.988;8.450;2023-08-17T08:41:09;14.02;;;10.43;;
21814;SDS011;11069;48.988;8.450;2023-08-17T08:43:36;12.82;;;8.88;;
21814;SDS011;11069;48.988;8.450;2023-08-17T08:46:01;10.48;;;8.20;;
21814;SDS011;11069;48.988;8.450;2023-08-17T08:48:27;13.02;;;9.32;;
21814;SDS011;11069;48.988;8.450;2023-08-17T08:50:54;12.52;;;9.25;;
21814;SDS011;11069;48.988;8.450;2023-08-17T08:53:28;12.82;;;9.55;;
21814;SDS011;11069;48.988;8.450;2023-08-17T08:56:10;13.18;;;9.48;;
21814;SDS011;11069;48.988;8.450;2023-08-17T08:58:37;12.25;;;8.90;;
21814;SDS011;11069;48.988;8.450;2023-08-17T09:01:04;11.57;;;9.30;;
21814;SDS011;11069;48.988;8.450;2023-08-17T09:03:32;13.52;;;9.18;;
21814;SDS011;11069;48.988;8.450;2023-08-17T09:05:58;11.98;;;8.82;;
21814;SDS011;11069;48.988;8.450;2023-08-17T09:08:27;12.27;;;9.48;;
21814;SDS011;11069;48.988;8.450;2023-08-17T09:10:54;9.80;;;8.65;;
21814;SDS011;11069;48.988;8.450;2023-08-17T09:13:19;15.80;;;8.65;;
21814;SDS011;11069;48.988;8.450;2023-08-17T09:15:45;11.20;;;8.20;;
21814;SDS011;11069;48.988;8.450;2023-08-17T09:18:11;11.02;;;8.77;;
21814;SDS011;11069;48.988;8.450;2023-08-17T09:20:38;10.27;;;8.63;;
21814;SDS011;11069;48.988;8.450;2023-08-17T09:23:19;11.75;;;8.93;;
21814;SDS011;11069;48.988;8.450;2023-08-17T09:25:46;10.90;;;8.85;;
21814;SDS011;11069;48.988;8.450;2023-08-17T09:28:15;13.15;;;9.50;;
21814;SDS011;11069;48.988;8.450;2023-08-17T09:30:58;11.90;;;9.25;;
21814;SDS011;11069;48.988;8.450;2023-08-17T09:33:30;10.93;;;8.95;;
21814;SDS011;11069;48.988;8.450;2023-08-17T09:35:57;9.10;;;8.20;;
21814;SDS011;11069;48.988;8.450;2023-08-17T09:38:24;9.75;;;8.38;;
21814;SDS011;11069;48.988;8.450;2023-08-17T09:40:51;9.63;;;8.15;;
21814;SDS011;11069;48.988;8.450;2023-08-17T09:43:17;12.77;;;9.05;;
21814;SDS011;11069;48.988;8.450;2023-08-17T09:45:47;11.30;;;8.95;;
21814;SDS011;11069;48.988;8.450;2023-08-17T09:48:18;9.70;;;7.85;;
21814;SDS011;11069;48.988;8.450;2023-08-17T09:50:45;9.37;;;7.50;;
21814;SDS011;11069;48.988;8.450;2023-08-17T09:53:12;8.25;;;7.30;;
21814;SDS011;11069;48.988;8.450;2023-08-17T09:55:39;9.13;;;7.75;;
21814;SDS011;11069;48.988;8.450;2023-08-17T09:58:09;9.13;;;7.50;;
21814;SDS011;11069;48.988;8.450;2023-08-17T10:03:14;8.23;;;7.30;;
21814;SDS011;11069;48.988;8.450;2023-08-17T10:05:42;8.90;;;6.90;;
21814;SDS011;11069;48.988;8.450;2023-08-17T10:08:10;9.38;;;8.38;;
21814;SDS011;11069;48.988;8.450;2023-08-17T10:10:38;8.80;;;6.95;;
21814;SDS011;11069;48.988;8.450;2023-08-17T10:16:04;9.77;;;7.88;;
21814;SDS011;11069;48.988;8.450;2023-08-17T10:19:01;9.55;;;7.68;;
21814;SDS011;11069;48.988;8.450;2023-08-17T10:21:39;7.95;;;6.85;;
21814;SDS011;11069;48.988;8.450;2023-08-17T10:24:28;8.43;;;6.85;;
21814;SDS011;11069;48.988;8.450;2023-08-17T10:26:58;7.93;;;6.05;;
21814;SDS011;11069;48.988;8.450;2023-08-17T10:29:24;7.72;;;6.18;;
21814;SDS011;11069;48.988;8.450;2023-08-17T10:31:51;7.20;;;5.53;;
21814;SDS011;11069;48.988;8.450;2023-08-17T10:34:17;8.95;;;5.32;;
21814;SDS011;11069;48.988;8.450;2023-08-17T10:36:44;7.82;;;5.80;;
21814;SDS011;11069;48.988;8.450;2023-08-17T10:39:27;7.10;;;5.60;;
21814;SDS011;11069;48.988;8.450;2023-08-17T10:41:53;8.20;;;5.72;;
21814;SDS011;11069;48.988;8.450;2023-08-17T10:49:56;9.85;;;6.05;;
21814;SDS011;11069;48.988;8.450;2023-08-17T10:55:06;7.63;;;5.10;;
21814;SDS011;11069;48.988;8.450;2023-08-17T11:02:52;6.80;;;5.20;;
21814;SDS011;11069;48.988;8.450;2023-08-17T11:08:03;5.75;;;5.20;;
21814;SDS011;11069;48.988;8.450;2023-08-17T11:10:29;5.88;;;5.28;;
21814;SDS011;11069;48.988;8.450;2023-08-17T11:12:56;6.50;;;5.75;;
21814;SDS011;11069;48.988;8.450;2023-08-17T11:15:34;7.53;;;6.20;;
21814;SDS011;11069;48.988;8.450;2023-08-17T11:20:33;8.18;;;5.47;;
21814;SDS011;11069;48.988;8.450;2023-08-17T11:23:00;7.47;;;5.78;;
21814;SDS011;11069;48.988;8.450;2023-08-17T11:25:26;7.35;;;6.22;;
21814;SDS011;11069;48.988;8.450;2023-08-17T11:27:52;6.40;;;5.47;;
21814;SDS011;11069;48.988;8.450;2023-08-17T11:30:19;7.47;;;6.05;;
21814;SDS011;11069;48.988;8.450;2023-08-17T11:32:45;8.45;;;6.68;;
21814;SDS011;11069;48.988;8.450;2023-08-17T11:35:11;10.95;;;6.63;;
21814;SDS011;11069;48.988;8.450;2023-08-17T11:37:36;11.77;;;8.82;;
21814;SDS011;11069;48.988;8.450;2023-08-17T11:40:02;9.05;;;7.53;;
21814;SDS011;11069;48.988;8.450;2023-08-17T11:42:29;10.55;;;8.98;;
21814;SDS011;11069;48.988;8.450;2023-08-17T11:44:55;12.00;;;9.52;;
21814;SDS011;11069;48.988;8.450;2023-08-17T11:47:21;12.00;;;9.40;;
21814;SDS011;11069;48.988;8.450;2023-08-17T11:49:49;11.82;;;8.80;;
21814;SDS011;11069;48.988;8.450;2023-08-17T11:52:15;13.77;;;10.27;;
21814;SDS011;11069;48.988;8.450;2023-08-17T11:54:41;11.50;;;9.65;;
21814;SDS011;11069;48.988;8.450;2023-08-17T11:57:06;13.38;;;9.95;;
21814;SDS011;11069;48.988;8.450;2023-08-17T11:59:32;14.02;;;10.48;;
21814;SDS011;11069;48.988;8.450;2023-08-17T12:01:58;11.65;;;9.65;;
21814;SDS011;11069;48.988;8.450;2023-08-17T12:04:25;12.88;;;10.13;;
21814;SDS011;11069;48.988;8.450;2023-08-17T12:06:51;11.48;;;10.18;;
21814;SDS011;11069;48.988;8.450;2023-08-17T12:09:17;11.68;;;9.77;;
21814;SDS011;11069;48.988;8.450;2023-08-17T12:11:44;11.95;;;9.57;;
21814;SDS011;11069;48.988;8.450;2023-08-17T12:14:10;10.73;;;9.50;;
21814;SDS011;11069;48.988;8.450;2023-08-17T12:16:46;13.85;;;10.05;;
21814;SDS011;11069;48.988;8.450;2023-08-17T12:19:15;11.75;;;8.75;;
21814;SDS011;11069;48.988;8.450;2023-08-17T12:21:41;13.50;;;9.40;;
21814;SDS011;11069;48.988;8.450;2023-08-17T12:24:10;11.77;;;9.65;;
21814;SDS011;11069;48.988;8.450;2023-08-17T12:26:43;13.00;;;9.60;;
21814;SDS011;11069;48.988;8.450;2023-08-17T12:29:09;16.48;;;9.48;;
21814;SDS011;11069;48.988;8.450;2023-08-17T12:31:35;14.90;;;9.20;;
21814;SDS011;11069;48.988;8.450;2023-08-17T12:34:00;14.45;;;9.13;;
21814;SDS011;11069;48.988;8.450;2023-08-17T12:36:26;10.88;;;8.77;;
21814;SDS011;11069;48.988;8.450;2023-08-17T12:38:52;11.27;;;8.82;;
21814;SDS011;11069;48.988;8.450;2023-08-17T12:41:18;11.55;;;9.13;;
21814;SDS011;11069;48.988;8.450;2023-08-17T12:43:43;12.07;;;8.75;;
21814;SDS011;11069;48.988;8.450;2023-08-17T12:46:09;9.57;;;8.55;;
21814;SDS011;11069;48.988;8.450;2023-08-17T12:48:35;10.02;;;8.20;;
21814;SDS011;11069;48.988;8.450;2023-08-17T12:51:01;10.38;;;8.75;;
21814;SDS011;11069;48.988;8.450;2023-08-17T12:53:28;10.18;;;8.80;;
21814;SDS011;11069;48.988;8.450;2023-08-17T12:55:53;10.32;;;8.77;;
21814;SDS011;11069;48.988;8.450;2023-08-17T12:58:19;11.90;;;9.32;;
21814;SDS011;11069;48.988;8.450;2023-08-17T13:00:44;11.85;;;9.05;;
21814;SDS011;11069;48.988;8.450;2023-08-17T13:03:10;9.98;;;8.38;;
21814;SDS011;11069;48.988;8.450;2023-08-17T13:05:36;9.75;;;8.75;;
21814;SDS011;11069;48.988;8.450;2023-08-17T13:08:01;10.65;;;9.27;;
21814;SDS011;11069;48.988;8.450;2023-08-17T13:10:27;10.18;;;8.50;;
21814;SDS011;11069;48.988;8.450;2023-08-17T13:12:53;12.00;;;8.50;;
21814;SDS011;11069;48.988;8.450;2023-08-17T13:15:21;9.30;;;7.53;;
21814;SDS011;11069;48.988;8.450;2023-08-17T13:17:47;9.13;;;8.05;;
21814;SDS011;11069;48.988;8.450;2023-08-17T13:20:13;10.85;;;8.13;;
21814;SDS011;11069;48.988;8.450;2023-08-17T13:22:38;9.68;;;7.72;;
21814;SDS011;11069;48.988;8.450;2023-08-17T13:25:04;10.30;;;7.35;;
21814;SDS011;11069;48.988;8.450;2023-08-17T13:27:30;10.63;;;7.30;;
21814;SDS011;11069;48.988;8.450;2023-08-17T13:29:56;10.40;;;7.78;;
21814;SDS011;11069;48.988;8.450;2023-08-17T13:32:23;8.18;;;7.03;;
21814;SDS011;11069;48.988;8.450;2023-08-17T13:34:50;15.05;;;7.88;;
21814;SDS011;11069;48.988;8.450;2023-08-17T13:37:16;8.25;;;7.22;;
21814;SDS011;11069;48.988;8.450;2023-08-17T13:39:41;8.90;;;7.18;;
21814;SDS011;11069;48.988;8.450;2023-08-17T13:42:07;13.13;;;7.45;;
21814;SDS011;11069;48.988;8.450;2023-08-17T13:44:33;9.45;;;6.90;;
21814;SDS011;11069;48.988;8.450;2023-08-17T13:46:58;11.30;;;7.80;;
21814;SDS011;11069;48.988;8.450;2023-08-17T13:49:24;7.95;;;7.15;;
21814;SDS011;11069;48.988;8.450;2023-08-17T13:51:49;8.05;;;7.05;;
21814;SDS011;11069;48.988;8.450;2023-08-17T13:54:15;8.23;;;6.68;;
21814;SDS011;11069;48.988;8.450;2023-08-17T13:56:41;10.70;;;7.65;;
21814;SDS011;11069;48.988;8.450;2023-08-17T13:59:06;10.70;;;7.15;;
21814;SDS011;11069;48.988;8.450;2023-08-17T14:01:32;8.75;;;7.30;;
21814;SDS011;11069;48.988;8.450;2023-08-17T14:03:57;7.35;;;6.57;;
21814;SDS011;11069;48.988;8.450;2023-08-17T14:06:23;8.73;;;7.47;;
21814;SDS011;11069;48.988;8.450;2023-08-17T14:08:48;12.77;;;7.30;;
21814;SDS011;11069;48.988;8.450;2023-08-17T14:11:14;7.70;;;6.75;;
21814;SDS011;11069;48.988;8.450;2023-08-17T14:13:39;7.15;;;6.25;;
21814;SDS011;11069;48.988;8.450;2023-08-17T14:16:05;10.48;;;7.13;;
21814;SDS011;11069;48.988;8.450;2023-08-17T14:18:31;7.38;;;6.30;;
21814;SDS011;11069;48.988;8.450;2023-08-17T14:20:56;10.02;;;7.10;;
21814;SDS011;11069;48.988;8.450;2023-08-17T14:23:22;9.05;;;6.53;;
21814;SDS011;11069;48.988;8.450;2023-08-17T14:25:48;7.05;;;6.22;;
21814;SDS011;11069;48.988;8.450;2023-08-17T14:28:14;7.63;;;6.55;;
21814;SDS011;11069;48.988;8.450;2023-08-17T14:30:39;7.35;;;6.65;;
21814;SDS011;11069;48.988;8.450;2023-08-17T14:33:05;7.70;;;6.00;;
21814;SDS011;11069;48.988;8.450;2023-08-17T14:35:31;7.18;;;6.25;;
21814;SDS011;11069;48.988;8.450;2023-08-17T14:37:56;9.38;;;6.32;;
21814;SDS011;11069;48.988;8.450;2023-08-17T14:40:25;9.95;;;6.95;;
21814;SDS011;11069;48.988;8.450;2023-08-17T14:42:51;7.43;;;6.70;;
21814;SDS011;11069;48.988;8.450;2023-08-17T14:45:17;7.13;;;5.90;;
21814;SDS011;11069;48.988;8.450;2023-08-17T14:47:43;9.90;;;6.07;;
21814;SDS011;11069;48.988;8.450;2023-08-17T14:50:08;9.43;;;6.80;;
21814;SDS011;11069;48.988;8.450;2023-08-17T14:52:34;9.90;;;6.43;;
21814;SDS011;11069;48.988;8.450;2023-08-17T14:55:00;8.65;;;6.50;;
21814;SDS011;11069;48.988;8.450;2023-08-17T14:57:26;8.13;;;6.47;;
21814;SDS011;11069;48.988;8.450;2023-08-17T14:59:51;12.13;;;6.45;;
21814;SDS011;11069;48.988;8.450;2023-08-17T15:02:17;8.52;;;6.70;;
21814;SDS011;11069;48.988;8.450;2023-08-17T15:04:43;10.05;;;6.07;;
21814;SDS011;11069;48.988;8.450;2023-08-17T15:07:09;8.77;;;6.38;;
21814;SDS011;11069;48.988;8.450;2023-08-17T15:09:36;7.85;;;6.15;;